createdAt,value
2023-03-19T00:00:42.779Z,82.54
2023-03-19T00:01:45.359Z,82.75
2023-03-19T00:02:42.770Z,83.36
2023-03-19T00:03:42.790Z,83.26
2023-03-19T00:04:42.730Z,83.56
2023-03-19T00:05:42.741Z,83.15
2023-03-19T00:06:42.698Z,83.36
2023-03-19T00:07:42.687Z,83.77
2023-03-19T00:08:42.682Z,84.66
2023-03-19T00:09:42.658Z,84.34
2023-03-19T00:10:42.645Z,85.21
2023-03-19T00:11:42.650Z,85.52
2023-03-19T00:12:42.616Z,86.33
2023-03-19T00:13:42.615Z,84.69
2023-03-19T00:14:42.597Z,83.91
2023-03-19T00:15:42.575Z,83.91
2023-03-19T00:16:42.619Z,84.12
2023-03-19T00:17:42.550Z,84.42
2023-03-19T00:18:42.534Z,85.00
2023-03-19T00:19:42.525Z,85.11
2023-03-19T00:20:42.508Z,84.69
2023-03-19T00:21:42.520Z,85.00
2023-03-19T00:22:42.485Z,83.98
2023-03-19T00:23:42.472Z,83.70
2023-03-19T00:24:42.463Z,83.67
2023-03-19T00:25:42.442Z,83.87
2023-03-19T00:26:42.441Z,85.41
2023-03-19T00:27:42.417Z,84.39
2023-03-19T00:28:42.407Z,84.18
2023-03-19T00:29:42.388Z,84.28
2023-03-19T00:30:42.409Z,84.28
2023-03-19T00:31:42.372Z,83.87
2023-03-19T00:32:42.392Z,84.28
2023-03-19T00:33:42.329Z,84.32
2023-03-19T00:34:42.318Z,84.90
2023-03-19T00:35:42.363Z,85.21
2023-03-19T00:36:42.296Z,85.82
2023-03-19T00:37:42.298Z,85.41
2023-03-19T00:38:42.268Z,84.08
2023-03-19T00:39:42.251Z,84.18
2023-03-19T00:40:42.245Z,83.26
2023-03-19T00:41:42.225Z,82.75
2023-03-19T00:42:42.215Z,83.67
2023-03-19T00:43:42.206Z,82.75
2023-03-19T00:44:42.198Z,82.23
2023-03-19T00:45:42.237Z,81.78
2023-03-19T00:46:42.164Z,80.76
2023-03-19T00:47:42.155Z,80.28
2023-03-19T00:48:42.141Z,81.57
2023-03-19T00:49:42.125Z,82.43
2023-03-19T00:50:42.104Z,83.63
2023-03-19T00:51:42.084Z,82.60
2023-03-19T00:52:42.073Z,83.12
2023-03-19T00:53:42.081Z,82.29
2023-03-19T00:54:42.052Z,81.78
2023-03-19T00:55:42.036Z,81.37
2023-03-19T00:56:42.025Z,80.65
2023-03-19T00:57:42.008Z,80.55
2023-03-19T00:58:41.996Z,80.76
2023-03-19T00:59:41.978Z,80.76
2023-03-19T01:00:41.965Z,80.72
2023-03-19T01:01:42.025Z,80.41
2023-03-19T01:02:41.933Z,80.72
2023-03-19T01:03:41.937Z,81.06
2023-03-19T01:04:42.054Z,80.82
2023-03-19T01:05:41.902Z,80.76
2023-03-19T01:06:41.941Z,80.55
2023-03-19T01:07:41.869Z,80.65
2023-03-19T01:08:41.856Z,80.86
2023-03-19T01:09:41.871Z,80.72
2023-03-19T01:10:41.827Z,80.86
2023-03-19T01:11:41.807Z,81.16
2023-03-19T01:12:41.800Z,80.55
2023-03-19T01:13:41.780Z,80.62
2023-03-19T01:14:41.770Z,81.02
2023-03-19T01:15:41.756Z,80.92
2023-03-19T01:16:41.740Z,80.10
2023-03-19T01:17:41.728Z,80.31
2023-03-19T01:18:41.713Z,80.41
2023-03-19T01:19:41.703Z,80.51
2023-03-19T01:20:41.689Z,80.51
2023-03-19T01:21:41.672Z,80.82
2023-03-19T01:22:41.663Z,81.34
2023-03-19T01:23:41.648Z,84.52
2023-03-19T01:24:41.637Z,85.23
2023-03-19T01:25:41.646Z,85.13
2023-03-19T01:26:41.613Z,85.74
2023-03-19T01:27:42.039Z,86.81
2023-03-19T01:28:41.588Z,87.53
2023-03-19T01:29:41.561Z,88.35
2023-03-19T01:30:41.557Z,89.37
2023-03-19T01:31:41.537Z,88.96
2023-03-19T01:32:41.552Z,88.24
2023-03-19T01:33:41.512Z,88.35
2023-03-19T01:34:41.503Z,89.58
2023-03-19T01:35:41.568Z,89.48
2023-03-19T01:36:41.474Z,87.53
2023-03-19T01:37:41.451Z,87.84
2023-03-19T01:38:41.446Z,88.45
2023-03-19T01:39:41.432Z,88.35
2023-03-19T01:40:41.412Z,89.37
2023-03-19T01:41:41.423Z,89.48
2023-03-19T01:42:41.389Z,88.35
2023-03-19T01:43:41.414Z,88.76
2023-03-19T01:44:41.364Z,89.89
2023-03-19T01:45:41.365Z,89.48
2023-03-19T01:46:41.394Z,88.56
2023-03-19T01:47:41.323Z,88.76
2023-03-19T01:48:41.359Z,89.69
2023-03-19T01:49:41.297Z,89.48
2023-03-19T01:50:41.286Z,89.83
2023-03-19T01:51:41.259Z,90.61
2023-03-19T01:52:41.256Z,90.61
2023-03-19T01:53:41.237Z,91.08
2023-03-19T01:54:41.225Z,90.97
2023-03-19T01:55:41.206Z,91.22
2023-03-19T01:56:41.196Z,90.09
2023-03-19T01:57:41.216Z,89.43
2023-03-19T01:58:41.167Z,89.99
2023-03-19T01:59:41.167Z,90.71
2023-03-19T02:00:41.146Z,91.18
2023-03-19T02:01:41.228Z,91.22
2023-03-19T02:02:41.115Z,91.53
2023-03-19T02:03:41.099Z,92.21
2023-03-19T02:04:41.145Z,92.82
2023-03-19T02:05:41.083Z,93.44
2023-03-19T02:06:41.066Z,94.46
2023-03-19T02:07:41.052Z,97.07
2023-03-19T02:08:41.037Z,98.87
2023-03-19T02:09:41.021Z,99.99
2023-03-19T02:10:41.010Z,99.99
2023-03-19T02:11:40.994Z,99.99
2023-03-19T02:12:40.981Z,99.99
2023-03-19T02:13:40.993Z,99.99
2023-03-19T02:14:40.974Z,99.99
2023-03-19T02:15:41.074Z,99.99
2023-03-19T02:16:40.929Z,99.99
2023-03-19T02:17:40.936Z,99.99
2023-03-19T02:18:40.895Z,99.99
2023-03-19T02:19:40.879Z,99.99
2023-03-19T02:20:40.868Z,99.99
2023-03-19T02:21:40.877Z,99.99
2023-03-19T02:22:40.837Z,99.99
2023-03-19T02:23:40.828Z,99.99
2023-03-19T02:24:40.824Z,99.99
2023-03-19T02:25:40.800Z,99.99
2023-03-19T02:26:40.790Z,99.99
2023-03-19T02:27:40.790Z,99.99
2023-03-19T02:28:40.773Z,99.99
2023-03-19T02:29:40.781Z,99.99
2023-03-19T02:30:40.735Z,99.99
2023-03-19T02:31:40.808Z,99.99
2023-03-19T02:32:40.768Z,99.99
2023-03-19T02:33:40.692Z,99.99
2023-03-19T02:34:40.676Z,99.99
2023-03-19T02:35:40.784Z,99.99
2023-03-19T02:36:40.655Z,99.99
2023-03-19T02:37:41.087Z,99.99
2023-03-19T02:38:40.627Z,99.99
2023-03-19T02:39:40.610Z,99.99
2023-03-19T02:40:40.596Z,99.99
2023-03-19T02:41:40.582Z,99.99
2023-03-19T02:42:40.571Z,99.99
2023-03-19T02:43:40.552Z,99.99
2023-03-19T02:44:40.543Z,99.99
2023-03-19T02:45:40.548Z,99.99
2023-03-19T02:46:40.549Z,99.99
2023-03-19T02:47:40.497Z,99.99
2023-03-19T02:48:40.488Z,99.99
2023-03-19T02:49:40.472Z,99.99
2023-03-19T02:50:40.459Z,99.99
2023-03-19T02:51:40.447Z,99.99
2023-03-19T02:52:40.428Z,99.99
2023-03-19T02:53:40.416Z,99.99
2023-03-19T02:54:40.403Z,99.99
2023-03-19T02:55:40.381Z,99.99
2023-03-19T02:56:40.397Z,99.99
2023-03-19T02:57:40.359Z,99.99
2023-03-19T02:58:40.357Z,99.99
2023-03-19T02:59:40.380Z,99.99
2023-03-19T03:00:40.394Z,99.99
2023-03-19T03:01:40.427Z,99.99
2023-03-19T03:02:40.298Z,99.99
2023-03-19T03:03:40.304Z,99.99
2023-03-19T03:04:40.272Z,99.99
2023-03-19T03:05:40.259Z,99.99
2023-03-19T03:06:40.247Z,99.99
2023-03-19T03:07:40.239Z,99.99
2023-03-19T03:08:40.226Z,99.99
2023-03-19T03:09:40.211Z,99.99
2023-03-19T03:10:40.203Z,99.99
2023-03-19T03:11:40.210Z,99.99
2023-03-19T03:12:40.168Z,99.99
2023-03-19T03:13:40.158Z,99.99
2023-03-19T03:14:40.141Z,99.99
2023-03-19T03:15:40.126Z,99.99
2023-03-19T03:16:40.165Z,99.99
2023-03-19T03:17:40.129Z,99.99
2023-03-19T03:18:40.085Z,99.99
2023-03-19T03:19:40.076Z,99.99
2023-03-19T03:20:40.073Z,99.99
2023-03-19T03:21:40.066Z,99.99
2023-03-19T03:22:40.031Z,99.99
2023-03-19T03:23:40.043Z,99.99
2023-03-19T03:24:40.029Z,99.99
2023-03-19T03:25:40.042Z,99.99
2023-03-19T03:26:40.278Z,99.99
2023-03-19T03:27:39.961Z,99.99
2023-03-19T03:28:39.947Z,99.99
2023-03-19T03:29:40.035Z,99.99
2023-03-19T03:30:39.919Z,99.99
2023-03-19T03:31:39.960Z,99.99
2023-03-19T03:32:39.968Z,99.99
2023-03-19T03:33:39.897Z,99.99
2023-03-19T03:34:39.893Z,99.99
2023-03-19T03:35:39.910Z,99.99
2023-03-19T03:36:39.845Z,99.99
2023-03-19T03:37:39.977Z,99.99
2023-03-19T03:38:39.817Z,99.99
2023-03-19T03:39:39.797Z,99.99
2023-03-19T03:40:39.802Z,99.99
2023-03-19T03:41:39.774Z,99.99
2023-03-19T03:42:39.761Z,99.99
2023-03-19T03:43:39.749Z,99.99
2023-03-19T03:44:39.731Z,99.99
2023-03-19T03:45:39.797Z,99.99
2023-03-19T03:46:40.073Z,99.99
2023-03-19T03:47:39.722Z,99.99
2023-03-19T03:48:39.681Z,99.99
2023-03-19T03:49:39.689Z,99.99
2023-03-19T03:50:39.654Z,99.99
2023-03-19T03:51:39.642Z,99.99
2023-03-19T03:52:39.621Z,99.99
2023-03-19T03:53:39.611Z,99.99
2023-03-19T03:54:39.596Z,99.99
2023-03-19T03:55:39.580Z,99.99
2023-03-19T03:56:39.567Z,99.99
2023-03-19T03:57:39.554Z,99.99
2023-03-19T03:58:39.541Z,99.99
2023-03-19T03:59:39.536Z,99.99
2023-03-19T04:00:39.515Z,99.99
2023-03-19T04:01:39.511Z,99.99
2023-03-19T04:02:39.642Z,99.99
2023-03-19T04:03:39.531Z,99.99
2023-03-19T04:04:39.465Z,99.99
2023-03-19T04:05:39.573Z,99.99
2023-03-19T04:06:39.434Z,99.99
2023-03-19T04:07:39.418Z,99.99
2023-03-19T04:08:39.401Z,99.99
2023-03-19T04:09:39.390Z,99.99
2023-03-19T04:10:39.428Z,99.99
2023-03-19T04:11:39.367Z,99.99
2023-03-19T04:12:39.358Z,99.99
2023-03-19T04:13:39.339Z,99.99
2023-03-19T04:14:39.578Z,99.99
2023-03-19T04:15:39.311Z,99.99
2023-03-19T04:16:39.639Z,99.99
2023-03-19T04:17:39.280Z,99.99
2023-03-19T04:18:39.621Z,99.99
2023-03-19T04:19:39.255Z,99.99
2023-03-19T04:20:39.238Z,99.99
2023-03-19T04:21:39.552Z,99.99
2023-03-19T04:22:39.214Z,99.99
2023-03-19T04:23:39.208Z,99.99
2023-03-19T04:24:39.193Z,99.99
2023-03-19T04:25:39.179Z,99.99
2023-03-19T04:26:39.173Z,99.99
2023-03-19T04:27:39.151Z,99.99
2023-03-19T04:28:39.133Z,99.99
2023-03-19T04:29:39.128Z,99.99
2023-03-19T04:30:39.496Z,99.99
2023-03-19T04:31:39.846Z,99.99
2023-03-19T04:32:39.086Z,99.99
2023-03-19T04:33:39.062Z,99.99
2023-03-19T04:34:39.050Z,99.99
2023-03-19T04:35:39.082Z,99.99
2023-03-19T04:36:39.021Z,99.99
2023-03-19T04:37:39.033Z,99.99
2023-03-19T04:38:38.994Z,99.99
2023-03-19T04:39:38.986Z,99.99
2023-03-19T04:40:38.983Z,99.99
2023-03-19T04:41:38.960Z,99.99
2023-03-19T04:42:38.950Z,99.99
2023-03-19T04:43:38.930Z,99.99
2023-03-19T04:44:38.915Z,99.99
2023-03-19T04:45:38.901Z,99.99
2023-03-19T04:46:38.897Z,99.99
2023-03-19T04:47:38.893Z,99.99
2023-03-19T04:48:38.866Z,99.99
2023-03-19T04:49:38.856Z,99.99
2023-03-19T04:50:38.835Z,99.99
2023-03-19T04:51:38.829Z,99.99
2023-03-19T04:52:38.818Z,99.99
2023-03-19T04:53:38.860Z,99.99
2023-03-19T04:54:38.784Z,99.99
2023-03-19T04:55:38.765Z,99.99
2023-03-19T04:56:38.763Z,99.99
2023-03-19T04:57:38.736Z,99.99
2023-03-19T04:58:38.725Z,99.99
2023-03-19T04:59:38.706Z,99.99
2023-03-19T05:00:38.695Z,99.99
2023-03-19T05:01:38.775Z,99.99
2023-03-19T05:02:38.671Z,99.99
2023-03-19T05:03:38.663Z,99.99
2023-03-19T05:04:38.642Z,99.99
2023-03-19T05:05:38.631Z,99.99
2023-03-19T05:06:38.621Z,99.99
2023-03-19T05:07:38.603Z,99.99
2023-03-19T05:08:38.592Z,99.99
2023-03-19T05:09:38.598Z,99.99
2023-03-19T05:10:38.558Z,99.99
2023-03-19T05:11:38.549Z,99.99
2023-03-19T05:12:38.538Z,99.99
2023-03-19T05:13:38.517Z,99.99
2023-03-19T05:14:38.501Z,99.99
2023-03-19T05:15:38.537Z,99.99
2023-03-19T05:16:38.478Z,99.99
2023-03-19T05:17:38.464Z,99.99
2023-03-19T05:18:41.190Z,99.99
2023-03-19T05:19:38.438Z,99.99
2023-03-19T05:20:38.435Z,99.99
2023-03-19T05:21:38.409Z,99.99
2023-03-19T05:22:38.392Z,99.99
2023-03-19T05:23:38.376Z,99.99
2023-03-19T05:24:38.372Z,99.99
2023-03-19T05:25:38.417Z,99.99
2023-03-19T05:26:38.344Z,99.99
2023-03-19T05:27:38.321Z,99.99
2023-03-19T05:28:38.313Z,99.99
2023-03-19T05:29:40.843Z,99.99
2023-03-19T05:30:38.288Z,99.99
2023-03-19T05:31:38.277Z,99.99
2023-03-19T05:32:38.358Z,99.99
2023-03-19T05:33:38.250Z,99.99
2023-03-19T05:34:38.232Z,99.99
2023-03-19T05:35:38.265Z,99.99
2023-03-19T05:36:38.756Z,99.99
2023-03-19T05:37:38.194Z,99.99
2023-03-19T05:38:38.176Z,99.99
2023-03-19T05:39:38.162Z,99.99
2023-03-19T05:40:38.151Z,99.99
2023-03-19T05:41:38.156Z,99.99
2023-03-19T05:42:38.129Z,99.99
2023-03-19T05:43:38.107Z,99.99
2023-03-19T05:44:38.092Z,99.99
2023-03-19T05:45:38.075Z,99.99
2023-03-19T05:46:38.178Z,99.99
2023-03-19T05:47:38.200Z,99.99
2023-03-19T05:48:38.042Z,99.99
2023-03-19T05:49:38.023Z,99.99
2023-03-19T05:50:38.021Z,99.99
2023-03-19T05:51:37.998Z,99.99
2023-03-19T05:52:37.982Z,99.99
2023-03-19T05:53:37.969Z,99.99
2023-03-19T05:54:37.969Z,99.99
2023-03-19T05:55:37.946Z,99.99
2023-03-19T05:56:37.940Z,99.99
2023-03-19T05:57:37.942Z,99.99
2023-03-19T05:58:37.900Z,99.99
2023-03-19T05:59:37.889Z,99.99
2023-03-19T06:00:37.879Z,99.99
2023-03-19T06:01:37.912Z,99.99
2023-03-19T06:02:37.913Z,99.99
2023-03-19T06:03:37.887Z,99.99
2023-03-19T06:04:37.819Z,99.99
2023-03-19T06:05:37.810Z,99.99
2023-03-19T06:06:37.797Z,99.99
2023-03-19T06:07:37.776Z,99.99
2023-03-19T06:08:37.760Z,99.99
2023-03-19T06:09:37.747Z,99.99
2023-03-19T06:10:37.739Z,99.99
2023-03-19T06:11:37.727Z,99.99
2023-03-19T06:12:37.715Z,99.99
2023-03-19T06:13:37.723Z,99.99
2023-03-19T06:14:37.683Z,99.99
2023-03-19T06:15:37.670Z,99.99
2023-03-19T06:16:37.655Z,99.99
2023-03-19T06:17:37.640Z,99.99
2023-03-19T06:18:37.621Z,99.99
2023-03-19T06:19:37.613Z,99.99
2023-03-19T06:20:37.603Z,99.99
2023-03-19T06:21:37.589Z,99.99
2023-03-19T06:22:37.574Z,99.99
2023-03-19T06:23:37.566Z,99.99
2023-03-19T06:24:37.548Z,99.99
2023-03-19T06:25:37.555Z,99.99
2023-03-19T06:26:37.535Z,99.99
2023-03-19T06:27:37.501Z,99.99
2023-03-19T06:28:37.495Z,99.99
2023-03-19T06:29:37.506Z,99.99
2023-03-19T06:30:37.484Z,99.99
2023-03-19T06:31:37.465Z,99.99
2023-03-19T06:32:37.527Z,99.99
2023-03-19T06:33:37.424Z,99.99
2023-03-19T06:34:37.412Z,99.99
2023-03-19T06:35:37.434Z,99.99
2023-03-19T06:36:37.392Z,99.99
2023-03-19T06:37:37.370Z,99.99
2023-03-19T06:38:37.355Z,99.99
2023-03-19T06:39:37.345Z,99.99
2023-03-19T06:40:37.333Z,99.99
2023-03-19T06:41:37.328Z,99.99
2023-03-19T06:42:37.451Z,99.99
2023-03-19T06:43:37.425Z,99.99
2023-03-19T06:44:37.276Z,99.99
2023-03-19T06:45:37.380Z,99.99
2023-03-19T06:46:37.251Z,99.99
2023-03-19T06:47:37.236Z,99.99
2023-03-19T06:48:37.690Z,99.99
2023-03-19T06:49:37.204Z,99.99
2023-03-19T06:50:37.200Z,99.99
2023-03-19T06:51:37.187Z,99.99
2023-03-19T06:52:37.177Z,99.99
2023-03-19T06:53:37.158Z,99.99
2023-03-19T06:54:38.461Z,99.99
2023-03-19T06:55:37.124Z,99.99
2023-03-19T06:56:37.113Z,99.99
2023-03-19T06:57:37.101Z,99.99
2023-03-19T06:58:37.087Z,99.99
2023-03-19T06:59:37.068Z,99.99
2023-03-19T07:00:37.242Z,99.99
2023-03-19T07:01:37.067Z,99.99
2023-03-19T07:02:37.031Z,99.99
2023-03-19T07:03:37.021Z,99.99
2023-03-19T07:04:37.006Z,99.99
2023-03-19T07:05:36.994Z,99.99
2023-03-19T07:06:36.979Z,99.99
2023-03-19T07:07:36.966Z,99.99
2023-03-19T07:08:36.961Z,99.99
2023-03-19T07:09:36.942Z,99.99
2023-03-19T07:10:37.324Z,99.99
2023-03-19T07:11:36.912Z,99.99
2023-03-19T07:12:36.913Z,99.99
2023-03-19T07:13:36.879Z,99.99
2023-03-19T07:14:36.889Z,99.99
2023-03-19T07:15:36.873Z,99.99
2023-03-19T07:16:37.075Z,99.99
2023-03-19T07:17:36.848Z,99.99
2023-03-19T07:18:36.821Z,99.99
2023-03-19T07:19:36.806Z,99.99
2023-03-19T07:20:37.177Z,99.99
2023-03-19T07:21:36.786Z,99.99
2023-03-19T07:22:36.760Z,99.99
2023-03-19T07:23:37.038Z,99.99
2023-03-19T07:24:36.730Z,99.99
2023-03-19T07:25:36.714Z,99.99
2023-03-19T07:26:36.716Z,99.99
2023-03-19T07:27:36.692Z,99.99
2023-03-19T07:28:36.683Z,99.99
2023-03-19T07:29:36.664Z,99.99
2023-03-19T07:30:36.739Z,99.99
2023-03-19T07:31:36.672Z,99.99
2023-03-19T07:32:36.653Z,99.99
2023-03-19T07:33:36.637Z,99.99
2023-03-19T07:34:36.596Z,99.99
2023-03-19T07:35:36.652Z,99.99
2023-03-19T07:36:36.578Z,99.99
2023-03-19T07:37:36.555Z,99.99
2023-03-19T07:38:36.554Z,99.99
2023-03-19T07:39:36.525Z,99.99
2023-03-19T07:40:36.842Z,99.99
2023-03-19T07:41:36.494Z,99.99
2023-03-19T07:42:36.560Z,99.99
2023-03-19T07:43:36.472Z,99.99
2023-03-19T07:44:36.474Z,99.99
2023-03-19T07:45:36.508Z,99.99
2023-03-19T07:46:36.438Z,99.99
2023-03-19T07:47:36.418Z,99.99
2023-03-19T07:48:36.407Z,99.99
2023-03-19T07:49:36.415Z,99.99
2023-03-19T07:50:36.519Z,99.99
2023-03-19T07:51:36.359Z,99.99
2023-03-19T07:52:36.395Z,99.99
2023-03-19T07:53:36.334Z,99.99
2023-03-19T07:54:36.325Z,99.99
2023-03-19T07:55:38.311Z,99.99
2023-03-19T07:56:36.315Z,99.99
2023-03-19T07:57:36.279Z,99.99
2023-03-19T07:58:36.272Z,99.99
2023-03-19T07:59:36.247Z,99.99
2023-03-19T08:00:36.718Z,99.99
2023-03-19T08:01:36.220Z,99.99
2023-03-19T08:02:36.286Z,99.99
2023-03-19T08:03:36.199Z,99.99
2023-03-19T08:04:36.302Z,99.99
2023-03-19T08:05:36.204Z,99.99
2023-03-19T08:06:36.198Z,99.99
2023-03-19T08:07:36.141Z,99.99
2023-03-19T08:08:36.135Z,99.99
2023-03-19T08:09:36.293Z,99.99
2023-03-19T08:10:37.975Z,99.99
2023-03-19T08:11:36.095Z,99.99
2023-03-19T08:12:36.078Z,99.99
2023-03-19T08:13:36.061Z,99.99
2023-03-19T08:14:36.049Z,99.99
2023-03-19T08:15:36.032Z,99.99
2023-03-19T08:16:36.064Z,99.99
2023-03-19T08:17:36.006Z,99.99
2023-03-19T08:18:35.986Z,99.99
2023-03-19T08:19:35.970Z,99.99
2023-03-19T08:20:36.439Z,99.99
2023-03-19T08:21:35.971Z,99.99
2023-03-19T08:22:35.945Z,99.99
2023-03-19T08:23:35.936Z,99.99
2023-03-19T08:24:35.905Z,99.99
2023-03-19T08:25:36.079Z,99.99
2023-03-19T08:26:35.885Z,99.58
2023-03-19T08:27:35.866Z,99.99
2023-03-19T08:28:35.857Z,99.99
2023-03-19T08:29:35.856Z,99.99
2023-03-19T08:30:36.434Z,99.64
2023-03-19T08:31:35.815Z,99.99
2023-03-19T08:32:35.851Z,99.99
2023-03-19T08:33:35.788Z,99.99
2023-03-19T08:34:35.802Z,99.54
2023-03-19T08:35:35.839Z,98.63
2023-03-19T08:36:35.749Z,95.57
2023-03-19T08:37:35.811Z,98.32
2023-03-19T08:38:35.721Z,99.34
2023-03-19T08:39:35.703Z,99.04
2023-03-19T08:40:36.338Z,98.32
2023-03-19T08:41:35.679Z,98.93
2023-03-19T08:42:35.681Z,94.34
2023-03-19T08:43:35.662Z,95.67
2023-03-19T08:44:35.639Z,96.84
2023-03-19T08:45:35.629Z,95.12
2023-03-19T08:46:35.748Z,97.21
2023-03-19T08:47:35.598Z,93.59
2023-03-19T08:48:35.594Z,91.30
2023-03-19T08:49:35.582Z,92.18
2023-03-19T08:50:35.876Z,92.89
2023-03-19T08:51:35.549Z,92.74
2023-03-19T08:52:35.538Z,96.26
2023-03-19T08:53:35.541Z,95.18
2023-03-19T08:54:35.506Z,93.41
2023-03-19T08:55:35.492Z,94.02
2023-03-19T08:56:35.480Z,91.58
2023-03-19T08:57:35.460Z,91.07
2023-03-19T08:58:35.445Z,91.84
2023-03-19T08:59:35.438Z,91.29
2023-03-19T09:00:35.744Z,90.49
2023-03-19T09:01:35.485Z,89.29
2023-03-19T09:02:35.393Z,82.76
2023-03-19T09:03:35.377Z,83.07
2023-03-19T09:04:35.444Z,79.33
2023-03-19T09:05:35.365Z,77.62
2023-03-19T09:06:35.345Z,77.39
2023-03-19T09:07:35.367Z,74.90
2023-03-19T09:08:35.316Z,74.52
2023-03-19T09:09:35.324Z,70.49
2023-03-19T09:10:35.670Z,74.12
2023-03-19T09:11:35.306Z,74.12
2023-03-19T09:12:35.260Z,75.12
2023-03-19T09:13:35.246Z,64.97
2023-03-19T09:14:35.227Z,69.02
2023-03-19T09:15:35.547Z,65.68
2023-03-19T09:16:35.197Z,63.28
2023-03-19T09:17:35.187Z,67.12
2023-03-19T09:18:35.176Z,68.69
2023-03-19T09:19:35.178Z,63.56
2023-03-19T09:20:35.156Z,63.02
2023-03-19T09:21:35.136Z,63.29
2023-03-19T09:22:35.377Z,59.69
2023-03-19T09:23:35.109Z,61.69
2023-03-19T09:24:35.100Z,58.00
2023-03-19T09:25:35.656Z,61.85
2023-03-19T09:26:35.073Z,62.82
2023-03-19T09:27:35.053Z,64.18
2023-03-19T09:28:35.038Z,63.42
2023-03-19T09:29:35.044Z,61.94
2023-03-19T09:30:35.015Z,65.21
2023-03-19T09:31:35.098Z,61.58
2023-03-19T09:32:35.098Z,64.86
2023-03-19T09:33:35.073Z,62.30
2023-03-19T09:34:34.962Z,67.20
2023-03-19T09:35:35.292Z,71.47
2023-03-19T09:36:34.935Z,69.48
2023-03-19T09:37:35.173Z,69.42
2023-03-19T09:38:35.065Z,72.27
2023-03-19T09:39:35.047Z,72.41
2023-03-19T09:40:34.888Z,73.21
2023-03-19T09:41:34.897Z,71.00
2023-03-19T09:42:34.852Z,71.33
2023-03-19T09:43:34.844Z,60.27
2023-03-19T09:44:34.840Z,61.84
2023-03-19T09:45:35.391Z,60.36
2023-03-19T09:46:34.822Z,61.30
2023-03-19T09:47:34.790Z,61.40
2023-03-19T09:48:34.785Z,60.29
2023-03-19T09:49:34.764Z,61.77
2023-03-19T09:50:34.794Z,62.11
2023-03-19T09:51:34.737Z,60.95
2023-03-19T09:52:34.720Z,56.57
2023-03-19T09:53:34.710Z,56.09
2023-03-19T09:54:34.705Z,58.05
2023-03-19T09:55:34.924Z,56.07
2023-03-19T09:56:34.677Z,55.90
2023-03-19T09:57:34.682Z,58.51
2023-03-19T09:58:34.640Z,61.11
2023-03-19T09:59:34.634Z,59.13
2023-03-19T10:00:34.618Z,64.83
2023-03-19T10:01:34.637Z,65.67
2023-03-19T10:02:34.592Z,60.02
2023-03-19T10:03:34.663Z,56.38
2023-03-19T10:04:34.566Z,60.36
2023-03-19T10:05:34.726Z,56.52
2023-03-19T10:06:34.538Z,58.00
2023-03-19T10:07:34.528Z,56.87
2023-03-19T10:08:34.521Z,54.02
2023-03-19T10:09:34.500Z,53.34
2023-03-19T10:10:34.485Z,54.90
2023-03-19T10:11:34.845Z,54.47
2023-03-19T10:12:34.454Z,50.81
2023-03-19T10:13:34.469Z,60.64
2023-03-19T10:14:34.431Z,56.96
2023-03-19T10:15:34.661Z,59.89
2023-03-19T10:16:34.469Z,55.13
2023-03-19T10:17:34.389Z,55.28
2023-03-19T10:18:34.377Z,55.83
2023-03-19T10:19:34.712Z,55.79
2023-03-19T10:20:34.350Z,58.61
2023-03-19T10:21:34.341Z,55.14
2023-03-19T10:22:34.318Z,56.62
2023-03-19T10:23:34.315Z,58.54
2023-03-19T10:24:34.302Z,56.22
2023-03-19T10:25:34.524Z,56.47
2023-03-19T10:26:34.274Z,53.09
2023-03-19T10:27:34.268Z,54.13
2023-03-19T10:28:34.248Z,52.51
2023-03-19T10:29:34.257Z,53.32
2023-03-19T10:30:34.226Z,53.25
2023-03-19T10:31:34.284Z,53.45
2023-03-19T10:32:34.236Z,51.06
2023-03-19T10:33:34.429Z,49.16
2023-03-19T10:34:34.162Z,50.68
2023-03-19T10:35:34.575Z,54.00
2023-03-19T10:36:34.149Z,51.38
2023-03-19T10:37:34.130Z,53.27
2023-03-19T10:38:34.118Z,51.99
2023-03-19T10:39:34.107Z,53.58
2023-03-19T10:40:34.082Z,51.14
2023-03-19T10:41:34.079Z,51.54
2023-03-19T10:42:34.058Z,48.74
2023-03-19T10:43:34.047Z,51.99
2023-03-19T10:44:34.041Z,51.99
2023-03-19T10:45:34.599Z,50.96
2023-03-19T10:46:34.005Z,53.70
2023-03-19T10:47:33.998Z,50.65
2023-03-19T10:48:33.991Z,51.56
2023-03-19T10:49:33.971Z,52.47
2023-03-19T10:50:33.956Z,53.38
2023-03-19T10:51:33.943Z,52.57
2023-03-19T10:52:33.931Z,52.77
2023-03-19T10:53:33.925Z,53.17
2023-03-19T10:54:33.904Z,54.58
2023-03-19T10:55:34.203Z,49.87
2023-03-19T10:56:34.089Z,52.39
2023-03-19T10:57:33.857Z,50.78
2023-03-19T10:58:33.849Z,53.40
2023-03-19T10:59:33.831Z,53.47
2023-03-19T11:00:33.820Z,50.98
2023-03-19T11:01:34.026Z,56.70
2023-03-19T11:02:33.788Z,54.05
2023-03-19T11:03:33.811Z,50.33
2023-03-19T11:04:33.768Z,53.25
2023-03-19T11:05:34.122Z,52.72
2023-03-19T11:06:33.736Z,54.30
2023-03-19T11:07:33.728Z,51.18
2023-03-19T11:08:36.009Z,52.39
2023-03-19T11:09:33.708Z,50.20
2023-03-19T11:10:33.690Z,51.14
2023-03-19T11:11:33.668Z,50.35
2023-03-19T11:12:33.654Z,52.97
2023-03-19T11:13:33.647Z,50.73
2023-03-19T11:14:33.622Z,51.59
2023-03-19T11:15:33.861Z,48.99
2023-03-19T11:16:33.709Z,50.40
2023-03-19T11:17:33.606Z,53.12
2023-03-19T11:18:33.670Z,52.09
2023-03-19T11:19:33.557Z,50.15
2023-03-19T11:20:33.613Z,49.65
2023-03-19T11:21:33.525Z,48.95
2023-03-19T11:22:33.526Z,47.66
2023-03-19T11:23:33.505Z,49.62
2023-03-19T11:24:33.503Z,50.27
2023-03-19T11:25:33.827Z,50.17
2023-03-19T11:26:33.462Z,51.89
2023-03-19T11:27:33.457Z,50.07
2023-03-19T11:28:33.435Z,50.25
2023-03-19T11:29:33.423Z,49.24
2023-03-19T11:30:33.417Z,49.50
2023-03-19T11:31:33.484Z,49.77
2023-03-19T11:32:33.563Z,48.47
2023-03-19T11:33:33.490Z,48.79
2023-03-19T11:34:33.362Z,49.37
2023-03-19T11:35:33.659Z,49.85
2023-03-19T11:36:33.334Z,49.22
2023-03-19T11:37:33.311Z,47.39
2023-03-19T11:38:33.300Z,45.72
2023-03-19T11:39:33.281Z,45.30
2023-03-19T11:40:33.271Z,46.01
2023-03-19T11:41:33.286Z,46.17
2023-03-19T11:42:33.251Z,42.55
2023-03-19T11:43:33.229Z,43.33
2023-03-19T11:44:33.218Z,44.05
2023-03-19T11:45:33.488Z,41.85
2023-03-19T11:46:33.258Z,42.15
2023-03-19T11:47:33.186Z,42.23
2023-03-19T11:48:33.168Z,39.48
2023-03-19T11:49:33.182Z,43.89
2023-03-19T11:50:33.142Z,41.50
2023-03-19T11:51:33.128Z,41.67
2023-03-19T11:52:33.118Z,43.19
2023-03-19T11:53:33.110Z,43.54
2023-03-19T11:54:33.089Z,44.02
2023-03-19T11:55:33.329Z,48.00
2023-03-19T11:56:33.059Z,46.67
2023-03-19T11:57:33.050Z,46.62
2023-03-19T11:58:33.049Z,45.90
2023-03-19T11:59:33.022Z,45.98
2023-03-19T12:00:33.007Z,45.46
2023-03-19T12:01:33.155Z,42.97
2023-03-19T12:02:33.062Z,44.10
2023-03-19T12:03:33.003Z,44.87
2023-03-19T12:04:32.959Z,47.34
2023-03-19T12:05:33.263Z,48.77
2023-03-19T12:06:32.925Z,49.85
2023-03-19T12:07:32.921Z,48.09
2023-03-19T12:08:32.991Z,49.07
2023-03-19T12:09:32.896Z,49.19
2023-03-19T12:10:33.157Z,50.48
2023-03-19T12:11:32.865Z,51.79
2023-03-19T12:12:32.867Z,51.56
2023-03-19T12:13:32.895Z,49.85
2023-03-19T12:14:32.822Z,49.62
2023-03-19T12:15:33.097Z,48.94
2023-03-19T12:16:32.798Z,48.84
2023-03-19T12:17:32.788Z,49.30
2023-03-19T12:18:32.968Z,48.55
2023-03-19T12:19:32.757Z,47.72
2023-03-19T12:20:32.745Z,47.70
2023-03-19T12:21:32.776Z,47.47
2023-03-19T12:22:32.724Z,46.29
2023-03-19T12:23:35.829Z,48.85
2023-03-19T12:24:32.697Z,48.17
2023-03-19T12:25:32.955Z,51.18
2023-03-19T12:26:32.668Z,51.99
2023-03-19T12:27:32.655Z,50.26
2023-03-19T12:28:32.637Z,48.27
2023-03-19T12:29:32.632Z,50.60
2023-03-19T12:30:32.605Z,50.58
2023-03-19T12:31:32.645Z,49.90
2023-03-19T12:32:32.687Z,50.83
2023-03-19T12:33:32.771Z,52.24
2023-03-19T12:34:32.556Z,50.02
2023-03-19T12:35:32.680Z,51.54
2023-03-19T12:36:32.528Z,49.32
2023-03-19T12:37:32.548Z,50.45
2023-03-19T12:38:32.705Z,51.66
2023-03-19T12:39:32.487Z,50.48
2023-03-19T12:40:32.467Z,51.89
2023-03-19T12:41:32.458Z,51.18
2023-03-19T12:42:32.457Z,51.00
2023-03-19T12:43:32.437Z,52.82
2023-03-19T12:44:32.416Z,51.26
2023-03-19T12:45:32.687Z,50.56
2023-03-19T12:46:32.427Z,49.77
2023-03-19T12:47:32.381Z,50.70
2023-03-19T12:48:32.363Z,51.03
2023-03-19T12:49:32.352Z,52.92
2023-03-19T12:50:32.783Z,54.83
2023-03-19T12:51:32.328Z,52.51
2023-03-19T12:52:32.312Z,53.00